createdAt,value
2019-04-01T00:00:38.374Z,20.13
2019-04-01T00:03:11.524Z,19.10
2019-04-01T00:05:43.613Z,20.93
2019-04-01T00:08:15.632Z,19.27
2019-04-01T00:10:48.063Z,20.37
2019-04-01T00:13:20.173Z,20.03
2019-04-01T00:15:53.035Z,22.23
2019-04-01T00:18:25.687Z,21.10
2019-04-01T00:20:57.778Z,21.30
2019-04-01T00:23:30.121Z,20.07
2019-04-01T00:26:02.531Z,21.70
2019-04-01T00:28:34.634Z,21.17
2019-04-01T00:31:07.501Z,21.03
2019-04-01T00:33:40.701Z,20.23
2019-04-01T00:36:12.845Z,22.23
2019-04-01T00:38:44.945Z,21.37
2019-04-01T00:41:16.962Z,20.10
2019-04-01T00:43:53.201Z,22.27
2019-04-01T00:46:25.895Z,20.60
2019-04-01T00:48:58.406Z,20.53
2019-04-01T00:51:30.904Z,20.17
2019-04-01T00:54:03.369Z,22.70
2019-04-01T00:56:35.826Z,22.30
2019-04-01T00:59:07.918Z,21.23
2019-04-01T01:01:39.944Z,20.77
2019-04-01T01:04:12.462Z,21.30
2019-04-01T01:06:44.913Z,21.80
2019-04-01T01:09:17.335Z,19.77
2019-04-01T01:11:49.851Z,21.03
2019-04-01T01:14:22.208Z,22.40
2019-04-01T01:16:54.315Z,20.23
2019-04-01T01:19:26.837Z,21.50
2019-04-01T01:21:59.357Z,19.93
2019-04-01T01:24:32.575Z,20.43
2019-04-01T01:27:04.802Z,18.30
2019-04-01T01:29:37.242Z,20.83
2019-04-01T01:32:09.367Z,20.53
2019-04-01T01:34:41.971Z,22.47
2019-04-01T01:37:14.091Z,21.37
2019-04-01T01:39:46.632Z,20.90
2019-04-01T01:42:19.811Z,21.57
2019-04-01T01:44:52.683Z,20.60
2019-04-01T01:47:25.136Z,20.17
2019-04-01T01:49:57.338Z,20.03
2019-04-01T01:52:29.871Z,20.83
2019-04-01T01:55:02.038Z,21.23
2019-04-01T01:57:34.723Z,18.20
2019-04-01T02:00:07.601Z,18.77
2019-04-01T02:02:40.019Z,20.50
2019-04-01T02:05:12.350Z,20.13
2019-04-01T02:07:44.878Z,18.67
2019-04-01T02:10:17.647Z,18.43
2019-04-01T02:12:50.131Z,17.77
2019-04-01T02:15:22.235Z,19.17
2019-04-01T02:17:54.657Z,18.50
2019-04-01T02:20:27.199Z,17.43
2019-04-01T02:23:02.016Z,16.70
2019-04-01T02:25:34.500Z,16.87
2019-04-01T02:28:07.493Z,16.57
2019-04-01T02:30:39.896Z,15.27
2019-04-01T02:33:11.996Z,16.37
2019-04-01T02:35:44.913Z,15.57
2019-04-01T02:38:17.070Z,15.50
2019-04-01T02:40:49.143Z,15.07
2019-04-01T02:43:21.259Z,15.30
2019-04-01T02:45:53.369Z,16.27
2019-04-01T02:48:25.902Z,15.73
2019-04-01T02:50:58.395Z,15.67
2019-04-01T02:53:30.498Z,14.37
2019-04-01T02:56:02.581Z,15.13
2019-04-01T02:58:35.093Z,14.43
2019-04-01T03:01:07.597Z,14.87
2019-04-01T03:03:39.708Z,13.30
2019-04-01T03:06:11.754Z,15.43
2019-04-01T03:08:43.851Z,13.03
2019-04-01T03:11:15.905Z,14.97
2019-04-01T03:13:48.255Z,13.17
2019-04-01T03:16:20.727Z,13.77
2019-04-01T03:18:52.833Z,14.50
2019-04-01T03:21:24.882Z,14.03
2019-04-01T03:23:57.416Z,14.07
2019-04-01T03:26:29.891Z,13.63
2019-04-01T03:29:01.989Z,12.80
2019-04-01T03:31:34.361Z,12.67
2019-04-01T03:34:06.474Z,13.23
2019-04-01T03:36:38.520Z,13.10
2019-04-01T03:39:10.908Z,11.83
2019-04-01T03:41:42.966Z,12.33
2019-04-01T03:44:15.394Z,13.10
2019-04-01T03:46:47.470Z,13.47
2019-04-01T03:49:19.550Z,12.20
2019-04-01T03:51:52.038Z,14.27
2019-04-01T03:54:24.655Z,12.30
2019-04-01T03:56:57.535Z,13.00
2019-04-01T03:59:29.624Z,11.43
2019-04-01T04:02:04.743Z,14.67
2019-04-01T04:04:36.847Z,12.93
2019-04-01T04:07:08.907Z,12.67
2019-04-01T04:09:41.422Z,12.30
2019-04-01T04:12:13.843Z,12.13
2019-04-01T04:14:50.780Z,11.57
2019-04-01T04:17:20.049Z,11.77
2019-04-01T04:19:52.765Z,10.80
2019-04-01T04:22:25.117Z,11.57
2019-04-01T04:24:57.637Z,11.87
2019-04-01T04:27:30.065Z,10.40
2019-04-01T04:30:02.179Z,11.53
2019-04-01T04:32:34.214Z,11.87
2019-04-01T04:35:06.898Z,10.80
2019-04-01T04:37:39.690Z,11.57
2019-04-01T04:40:12.834Z,11.20
2019-04-01T04:42:45.017Z,10.47
2019-04-01T04:45:17.237Z,10.87
2019-04-01T04:47:49.222Z,10.60
2019-04-01T04:50:21.196Z,9.80
2019-04-01T04:52:53.647Z,10.27
2019-04-01T04:55:25.663Z,10.73
2019-04-01T04:57:58.372Z,9.33
2019-04-01T05:00:30.749Z,10.57
2019-04-01T05:03:02.910Z,10.27
2019-04-01T05:05:34.886Z,9.80
2019-04-01T05:08:07.471Z,10.03
2019-04-01T05:10:39.461Z,9.93
2019-04-01T05:13:11.820Z,9.40
2019-04-01T05:15:44.190Z,9.63
2019-04-01T05:18:16.520Z,8.87
2019-04-01T05:20:49.977Z,10.57
2019-04-01T05:23:23.033Z,10.13
2019-04-01T05:25:55.934Z,11.07
2019-04-01T05:28:30.647Z,10.57
2019-04-01T05:31:05.375Z,10.57
2019-04-01T05:33:54.575Z,9.50
2019-04-01T05:36:15.757Z,9.40
2019-04-01T05:38:48.485Z,8.50
2019-04-01T05:41:20.479Z,9.70
2019-04-01T05:43:53.097Z,8.60
2019-04-01T05:46:25.611Z,8.87
2019-04-01T05:48:58.064Z,7.83
2019-04-01T05:51:31.432Z,8.13
2019-04-01T05:54:03.745Z,8.33
2019-04-01T05:56:35.876Z,8.87
2019-04-01T05:59:08.205Z,7.90
2019-04-01T06:01:46.246Z,8.00
2019-04-01T06:04:18.137Z,7.80
2019-04-01T06:06:50.499Z,7.73
2019-04-01T06:09:22.609Z,7.03
2019-04-01T06:11:54.559Z,7.83
2019-04-01T06:14:26.467Z,7.10
2019-04-01T06:16:59.140Z,7.00
2019-04-01T06:19:31.128Z,8.70
2019-04-01T06:22:03.486Z,7.37
2019-04-01T06:24:35.852Z,7.70
2019-04-01T06:27:07.822Z,7.17
2019-04-01T06:29:40.467Z,7.23
2019-04-01T06:32:12.602Z,6.97
2019-04-01T06:34:52.681Z,6.80
2019-04-01T06:37:18.231Z,6.90
2019-04-01T06:39:50.624Z,7.33
2019-04-01T06:42:23.564Z,7.67
2019-04-01T06:44:56.434Z,6.73
2019-04-01T06:47:29.240Z,7.47
2019-04-01T06:50:01.276Z,6.87
2019-04-01T06:52:33.637Z,6.87
2019-04-01T06:55:05.999Z,7.27
2019-04-01T06:57:38.372Z,6.93
2019-04-01T07:00:11.580Z,6.63
2019-04-01T07:02:44.134Z,7.20
2019-04-01T07:05:16.808Z,7.13
2019-04-01T07:07:48.749Z,6.80
2019-04-01T07:10:24.708Z,6.90
2019-04-01T07:12:57.504Z,7.17
2019-04-01T07:15:30.569Z,6.60
2019-04-01T07:18:03.056Z,6.60
2019-04-01T07:20:35.583Z,6.37
2019-04-01T07:23:08.414Z,7.40
2019-04-01T07:25:40.856Z,7.20
2019-04-01T07:28:13.415Z,7.17
2019-04-01T07:30:45.952Z,7.30
2019-04-01T07:33:18.261Z,7.27
2019-04-01T07:35:50.464Z,6.70
2019-04-01T07:38:22.947Z,7.53
2019-04-01T07:40:55.406Z,7.90
2019-04-01T07:43:27.841Z,7.23
2019-04-01T07:46:00.236Z,7.40
2019-04-01T07:48:32.447Z,7.60
2019-04-01T07:51:07.081Z,7.57
2019-04-01T07:53:38.711Z,7.37
2019-04-01T07:56:10.950Z,7.50
2019-04-01T07:58:43.574Z,7.30
2019-04-01T08:01:15.682Z,8.20
2019-04-01T08:03:48.903Z,7.57
2019-04-01T08:06:22.365Z,8.50
2019-04-01T08:08:54.998Z,8.03
2019-04-01T08:11:27.820Z,7.00
2019-04-01T08:14:00.821Z,8.30
2019-04-01T08:16:33.336Z,9.27
2019-04-01T08:19:05.646Z,8.53
2019-04-01T08:21:41.383Z,8.83
2019-04-01T08:24:13.408Z,8.60
2019-04-01T08:26:46.556Z,8.47
2019-04-01T08:29:29.922Z,8.50
2019-04-01T08:31:53.033Z,8.67
2019-04-01T08:34:25.244Z,8.67
2019-04-01T08:36:58.814Z,9.07
2019-04-01T08:39:31.431Z,8.93
2019-04-01T08:42:04.049Z,8.90
2019-04-01T08:44:37.267Z,8.60
2019-04-01T08:47:09.290Z,8.00
2019-04-01T08:49:41.930Z,8.97
2019-04-01T08:52:14.762Z,9.10
2019-04-01T08:54:47.931Z,8.90
2019-04-01T08:57:20.521Z,8.67
2019-04-01T08:59:56.254Z,9.73
2019-04-01T09:02:27.511Z,9.63
2019-04-01T09:04:59.614Z,9.23
2019-04-01T09:07:31.635Z,9.13
2019-04-01T09:10:04.767Z,9.43
2019-04-01T09:12:37.387Z,7.57
2019-04-01T09:15:11.030Z,8.97
2019-04-01T09:17:44.224Z,8.83
2019-04-01T09:20:16.527Z,9.67
2019-04-01T09:22:49.069Z,10.13
2019-04-01T09:25:21.597Z,8.70
2019-04-01T09:27:54.478Z,9.00
2019-04-01T09:30:28.111Z,8.60
2019-04-01T09:33:00.557Z,9.90
2019-04-01T09:35:33.238Z,9.57
2019-04-01T09:38:05.839Z,9.97
2019-04-01T09:40:37.971Z,9.73
2019-04-01T09:43:13.658Z,10.63
2019-04-01T09:45:43.806Z,9.17
2019-04-01T09:48:17.164Z,9.17
2019-04-01T09:50:49.506Z,9.63
2019-04-01T09:53:21.634Z,10.53
2019-04-01T09:55:54.475Z,10.87
2019-04-01T09:58:26.507Z,10.10
2019-04-01T10:00:58.534Z,9.50
2019-04-01T10:03:30.638Z,10.30
2019-04-01T10:06:03.653Z,11.17
2019-04-01T10:08:42.543Z,10.33
2019-04-01T10:11:12.439Z,11.73
2019-04-01T10:13:43.214Z,11.10
2019-04-01T10:16:15.725Z,11.47
2019-04-01T10:18:47.760Z,10.87
2019-04-01T10:21:19.871Z,11.77
2019-04-01T10:23:52.346Z,10.87
2019-04-01T10:26:25.248Z,11.60
2019-04-01T10:28:58.233Z,10.00
2019-04-01T10:31:30.728Z,9.70
2019-04-01T10:34:02.931Z,12.10
2019-04-01T10:36:35.075Z,9.93
2019-04-01T10:39:10.213Z,11.27
2019-04-01T10:41:42.959Z,10.83
2019-04-01T10:44:15.066Z,11.90
2019-04-01T10:46:47.601Z,10.17
2019-04-01T10:49:20.215Z,10.97
2019-04-01T10:51:52.934Z,11.40
2019-04-01T10:54:26.030Z,10.93
2019-04-01T10:56:58.178Z,10.93
2019-04-01T10:59:30.710Z,10.27
2019-04-01T11:02:03.187Z,11.17
2019-04-01T11:04:35.759Z,10.47
2019-04-01T11:07:08.037Z,9.10
2019-04-01T11:09:40.399Z,11.27
2019-04-01T11:12:12.452Z,10.73
2019-04-01T11:14:44.566Z,11.50
2019-04-01T11:17:17.179Z,11.07
2019-04-01T11:19:49.213Z,12.07
2019-04-01T11:22:22.068Z,11.67
2019-04-01T11:24:54.802Z,11.90
2019-04-01T11:27:27.336Z,11.13
2019-04-01T11:29:59.683Z,10.33
2019-04-01T11:32:32.528Z,12.33
2019-04-01T11:35:05.535Z,12.40
2019-04-01T11:37:38.025Z,11.60
2019-04-01T11:40:12.234Z,11.60
2019-04-01T11:42:44.330Z,10.30
2019-04-01T11:45:16.984Z,11.53
2019-04-01T11:47:49.500Z,12.47
2019-04-01T11:50:22.071Z,11.43
2019-04-01T11:52:54.438Z,11.90
2019-04-01T11:55:27.123Z,12.83
2019-04-01T11:57:59.586Z,12.17
2019-04-01T12:00:31.699Z,12.97
2019-04-01T12:03:04.783Z,11.47
2019-04-01T12:05:36.817Z,12.43
2019-04-01T12:08:09.995Z,12.43
2019-04-01T12:10:42.025Z,11.27
2019-04-01T12:13:14.063Z,11.80
2019-04-01T12:15:47.030Z,12.40
2019-04-01T12:18:19.059Z,11.87
2019-04-01T12:20:51.899Z,12.17
2019-04-01T12:23:24.023Z,12.77
2019-04-01T12:25:56.543Z,9.03
2019-04-01T12:28:29.813Z,12.33
2019-04-01T12:31:02.263Z,12.70
2019-04-01T12:33:34.368Z,11.73
2019-04-01T12:36:07.340Z,12.03
2019-04-01T12:38:39.452Z,12.97
2019-04-01T12:41:11.871Z,12.10
2019-04-01T12:43:43.984Z,13.23
2019-04-01T12:46:16.409Z,12.87
2019-04-01T12:48:48.446Z,12.03
2019-04-01T12:51:21.785Z,12.67
2019-04-01T12:53:54.307Z,11.53
2019-04-01T12:56:26.419Z,10.23
2019-04-01T12:58:58.959Z,12.67
2019-04-01T13:01:31.487Z,12.23
2019-04-01T13:04:04.439Z,13.57
2019-04-01T13:06:36.649Z,13.10
2019-04-01T13:09:10.140Z,12.63
2019-04-01T13:11:42.170Z,13.00
2019-04-01T13:14:14.590Z,12.97
2019-04-01T13:16:47.638Z,12.50
2019-04-01T13:19:20.486Z,13.43
2019-04-01T13:21:53.432Z,13.23
2019-04-01T13:24:25.474Z,12.90
2019-04-01T13:26:57.511Z,12.90
2019-04-01T13:29:29.864Z,12.93
2019-04-01T13:32:02.293Z,11.97
2019-04-01T13:34:34.748Z,13.10
2019-04-01T13:37:07.059Z,12.73
2019-04-01T13:39:39.560Z,13.03
2019-04-01T13:42:12.713Z,12.87
2019-04-01T13:44:44.826Z,12.37
2019-04-01T13:47:16.864Z,12.60
2019-04-01T13:49:49.393Z,11.60
2019-04-01T13:52:21.495Z,12.73
2019-04-01T13:54:54.081Z,12.47
2019-04-01T13:57:26.508Z,12.03
2019-04-01T13:59:59.460Z,13.17
2019-04-01T14:02:31.813Z,11.93
2019-04-01T14:05:06.268Z,12.50
2019-04-01T14:07:39.139Z,11.90
2019-04-01T14:10:12.377Z,10.90
2019-04-01T14:12:45.225Z,11.80
2019-04-01T14:15:17.958Z,11.77
2019-04-01T14:17:50.481Z,11.47
2019-04-01T14:20:22.599Z,11.97
2019-04-01T14:22:55.133Z,12.20
2019-04-01T14:25:29.758Z,12.30
2019-04-01T14:28:02.560Z,12.23
2019-04-01T14:30:36.254Z,13.17
2019-04-01T14:33:08.535Z,11.97
2019-04-01T14:35:40.956Z,12.07
2019-04-01T14:38:13.394Z,12.07
2019-04-01T14:40:45.492Z,11.83
2019-04-01T14:43:18.034Z,9.57
2019-04-01T14:45:50.783Z,11.73
2019-04-01T14:48:23.841Z,12.70
2019-04-01T14:50:55.955Z,11.33
2019-04-01T14:53:28.483Z,11.67
2019-04-01T14:56:00.519Z,13.17
2019-04-01T14:58:32.621Z,11.47
2019-04-01T15:01:04.870Z,11.10
2019-04-01T15:03:37.230Z,10.40
2019-04-01T15:06:09.691Z,10.43
2019-04-01T15:08:42.127Z,10.97
2019-04-01T15:11:14.992Z,11.27
2019-04-01T15:13:47.024Z,12.00
2019-04-01T15:16:19.223Z,12.27
2019-04-01T15:18:52.048Z,11.40
2019-04-01T15:21:24.470Z,11.83
2019-04-01T15:23:57.914Z,12.03
2019-04-01T15:26:30.310Z,11.63
2019-04-01T15:29:02.860Z,11.20
2019-04-01T15:31:35.706Z,9.73
2019-04-01T15:34:09.398Z,12.30
2019-04-01T15:36:41.599Z,10.63
2019-04-01T15:39:15.530Z,12.03
2019-04-01T15:41:47.983Z,11.67
2019-04-01T15:44:20.118Z,10.00
2019-04-01T15:46:52.536Z,10.47
2019-04-01T15:49:24.969Z,12.07
2019-04-01T15:51:57.076Z,11.80
2019-04-01T15:54:29.611Z,11.67
2019-04-01T15:57:01.685Z,11.50
2019-04-01T15:59:34.852Z,11.33
2019-04-01T16:02:07.547Z,12.00
2019-04-01T16:04:39.647Z,11.10
2019-04-01T16:07:11.997Z,11.80
2019-04-01T16:09:44.151Z,11.87
2019-04-01T16:12:16.696Z,11.77
2019-04-01T16:14:49.219Z,12.40
2019-04-01T16:17:21.754Z,12.37
2019-04-01T16:19:53.855Z,11.80
2019-04-01T16:22:25.883Z,11.13
2019-04-01T16:24:58.336Z,11.00
2019-04-01T16:27:30.688Z,10.57
2019-04-01T16:30:02.793Z,12.03
2019-04-01T16:32:34.824Z,11.67
2019-04-01T16:35:08.479Z,10.83
2019-04-01T16:37:40.571Z,12.20
2019-04-01T16:40:12.836Z,9.90
2019-04-01T16:42:45.387Z,11.47
2019-04-01T16:45:17.970Z,11.47
2019-04-01T16:47:50.162Z,10.10
2019-04-01T16:50:22.738Z,11.17
2019-04-01T16:52:55.250Z,10.93
2019-04-01T16:55:27.403Z,11.10
2019-04-01T16:58:00.170Z,9.60
2019-04-01T17:00:32.298Z,10.13
2019-04-01T17:03:04.526Z,10.37
2019-04-01T17:05:36.699Z,10.27
2019-04-01T17:08:10.285Z,8.70
2019-04-01T17:10:42.562Z,10.27
2019-04-01T17:13:14.586Z,9.97
2019-04-01T17:15:46.938Z,9.63
2019-04-01T17:18:20.397Z,9.93
2019-04-01T17:20:52.934Z,10.47
2019-04-01T17:23:28.100Z,10.07
2019-04-01T17:25:59.427Z,10.00
2019-04-01T17:28:32.278Z,10.40
2019-04-01T17:31:04.724Z,9.93
2019-04-01T17:33:37.139Z,10.47
2019-04-01T17:36:11.019Z,10.13
2019-04-01T17:38:43.563Z,9.90
2019-04-01T17:41:16.215Z,11.57
2019-04-01T17:43:48.430Z,9.93
2019-04-01T17:46:20.695Z,9.97
2019-04-01T17:48:53.109Z,10.07
2019-04-01T17:51:26.128Z,9.67
2019-04-01T17:54:00.991Z,9.70
2019-04-01T17:56:32.513Z,9.30
2019-04-01T17:59:05.162Z,9.67
2019-04-01T18:01:38.289Z,8.87
2019-04-01T18:04:11.974Z,8.70
2019-04-01T18:06:44.517Z,9.70
2019-04-01T18:09:17.918Z,8.90
2019-04-01T18:11:51.611Z,10.33
2019-04-01T18:14:24.106Z,9.67
2019-04-01T18:16:56.890Z,10.13
2019-04-01T18:19:29.434Z,8.93
2019-04-01T18:22:01.551Z,8.70
2019-04-01T18:24:34.175Z,8.87
2019-04-01T18:27:07.194Z,8.73
2019-04-01T18:29:40.378Z,10.10
2019-04-01T18:32:12.817Z,9.17
2019-04-01T18:34:45.380Z,8.90
2019-04-01T18:37:19.059Z,8.20
2019-04-01T18:39:51.488Z,8.67
2019-04-01T18:42:26.712Z,8.83
2019-04-01T18:44:58.311Z,9.33
2019-04-01T18:47:30.702Z,9.63
2019-04-01T18:50:03.157Z,9.00
2019-04-01T18:52:35.799Z,8.53
2019-04-01T18:55:08.390Z,8.67
2019-04-01T18:57:41.815Z,8.60
2019-04-01T19:00:15.569Z,8.30
2019-04-01T19:02:47.575Z,9.10
2019-04-01T19:05:20.000Z,8.00
2019-04-01T19:07:52.074Z,9.57
2019-04-01T19:10:24.737Z,8.80
2019-04-01T19:13:05.748Z,11.13
2019-04-01T19:15:34.107Z,8.27
2019-04-01T19:18:07.260Z,8.63
2019-04-01T19:20:40.083Z,7.83
2019-04-01T19:23:12.895Z,8.53
2019-04-01T19:25:44.936Z,9.20
2019-04-01T19:28:18.491Z,8.20
2019-04-01T19:30:51.635Z,8.23
2019-04-01T19:33:24.386Z,8.43
2019-04-01T19:35:56.967Z,8.90
2019-04-01T19:38:29.911Z,8.20
2019-04-01T19:41:04.108Z,8.83
2019-04-01T19:43:37.257Z,7.83
2019-04-01T19:46:09.853Z,7.93
2019-04-01T19:48:42.282Z,8.17
2019-04-01T19:51:14.386Z,7.93
2019-04-01T19:53:46.486Z,7.50
2019-04-01T19:56:18.950Z,8.00
2019-04-01T19:58:53.283Z,7.90
2019-04-01T20:01:26.855Z,8.43
2019-04-01T20:03:59.343Z,7.60
2019-04-01T20:06:31.453Z,7.77
2019-04-01T20:09:05.104Z,7.50
2019-04-01T20:11:37.539Z,8.33
2019-04-01T20:14:11.148Z,7.33
2019-04-01T20:16:46.786Z,7.30
2019-04-01T20:19:17.797Z,7.83
2019-04-01T20:21:51.551Z,7.10
2019-04-01T20:24:23.792Z,7.33
2019-04-01T20:26:55.920Z,7.77
2019-04-01T20:29:30.366Z,7.53
2019-04-01T20:32:16.246Z,7.70
2019-04-01T20:34:36.729Z,7.67
2019-04-01T20:37:09.298Z,6.93
2019-04-01T20:39:41.512Z,6.63
2019-04-01T20:42:14.085Z,6.70
2019-04-01T20:44:47.211Z,7.37
2019-04-01T20:47:20.998Z,6.50
2019-04-01T20:49:53.106Z,7.07
2019-04-01T20:52:25.235Z,7.20
2019-04-01T20:54:58.071Z,6.00
2019-04-01T20:57:30.277Z,6.93
2019-04-01T21:00:03.272Z,7.43
2019-04-01T21:02:35.690Z,6.90
2019-04-01T21:05:09.239Z,6.53
2019-04-01T21:07:41.465Z,6.30
2019-04-01T21:10:14.519Z,6.87
2019-04-01T21:12:48.970Z,5.63
2019-04-01T21:15:21.548Z,6.03
2019-04-01T21:17:53.654Z,6.70
2019-04-01T21:20:25.673Z,6.43
2019-04-01T21:22:58.423Z,5.40
2019-04-01T21:25:31.094Z,6.53
2019-04-01T21:28:03.170Z,6.37
2019-04-01T21:30:35.717Z,6.23
2019-04-01T21:33:07.692Z,5.90
2019-04-01T21:35:40.167Z,5.63
2019-04-01T21:38:12.821Z,5.57
2019-04-01T21:40:44.876Z,6.30
2019-04-01T21:43:16.924Z,6.07
2019-04-01T21:45:49.430Z,5.97
2019-04-01T21:48:24.415Z,5.17
2019-04-01T21:50:59.349Z,5.50
2019-04-01T21:53:31.819Z,5.90
2019-04-01T21:56:04.823Z,5.90
2019-04-01T21:58:36.780Z,5.03
2019-04-01T22:01:09.674Z,5.70
2019-04-01T22:03:42.132Z,6.33
2019-04-01T22:06:14.648Z,5.40
2019-04-01T22:08:47.127Z,5.03
2019-04-01T22:11:19.812Z,5.10
2019-04-01T22:13:52.062Z,5.20
2019-04-01T22:16:24.055Z,5.40
2019-04-01T22:18:56.499Z,6.40
2019-04-01T22:21:28.772Z,5.77
2019-04-01T22:24:00.824Z,5.40
2019-04-01T22:26:32.797Z,5.63
2019-04-01T22:29:05.481Z,5.20
2019-04-01T22:31:37.732Z,5.80
2019-04-01T22:34:09.718Z,5.10
2019-04-01T22:36:41.725Z,5.70
2019-04-01T22:39:13.675Z,5.40
2019-04-01T22:41:46.103Z,4.53
2019-04-01T22:44:18.453Z,4.80
2019-04-01T22:46:50.824Z,4.90
2019-04-01T22:49:23.088Z,4.87
2019-04-01T22:51:55.450Z,4.73
2019-04-01T22:54:27.404Z,4.50
2019-04-01T22:56:59.342Z,5.23
2019-04-01T22:59:31.709Z,4.33
2019-04-01T23:02:03.741Z,4.90
2019-04-01T23:04:37.030Z,4.80
2019-04-01T23:07:09.059Z,5.30
2019-04-01T23:09:41.311Z,4.37
2019-04-01T23:12:13.236Z,4.37
2019-04-01T23:14:46.274Z,4.50
2019-04-01T23:17:19.338Z,4.83
2019-04-01T23:19:51.274Z,4.27
2019-04-01T23:22:23.647Z,4.83
2019-04-01T23:24:57.253Z,4.77
2019-04-01T23:27:29.962Z,4.10
2019-04-01T23:30:01.913Z,3.80
2019-04-01T23:32:34.707Z,4.03
2019-04-01T23:35:07.493Z,4.30
2019-04-01T23:37:40.031Z,3.93
2019-04-01T23:40:12.780Z,4.07
2019-04-01T23:42:45.037Z,4.23
2019-04-01T23:45:17.502Z,4.17
2019-04-01T23:47:49.902Z,4.77
2019-04-01T23:50:21.833Z,3.83
2019-04-01T23:52:53.767Z,4.03
2019-04-01T23:55:26.022Z,4.73
2019-04-01T23:57:57.953Z,4.33
